| time (UTC) | temp F | wind direction | speed MPH | gust MPH | rain 1hr in | rain 24hr in | rain mn in | humidity % | barometer mb |
| 20260507123041 | 77 | 283 | 0.0 | 5.0 | 0.43 | 3.20 | 0.00 | 82 | 1011.5 |
| 20260507123020 | 77 | 255 | 0.0 | 5.0 | 0.44 | 3.20 | 0.00 | 82 | 1011.6 |
| 20260507122520 | 77 | 227 | 2.0 | 6.0 | 0.43 | 3.14 | 0.00 | 82 | 1011.4 |
| 20260507122022 | 77 | 334 | 1.0 | 6.0 | 0.41 | 3.10 | 0.00 | 82 | 1011.3 |
| 20260507122020 | 77 | 336 | 1.0 | 6.0 | 0.41 | 3.10 | 0.00 | 82 | 1011.3 |
| 20260507121521 | 77 | 249 | 2.0 | 8.0 | 0.38 | 3.04 | 0.00 | 82 | 1011.4 |
| 20260507121511 | 77 | 196 | 2.0 | 8.0 | 0.38 | 3.04 | 0.00 | 82 | 1011.3 |
| 20260507121020 | 77 | 262 | 1.0 | 9.0 | 0.36 | 2.99 | 0.00 | 82 | 1011.4 |
| 20260507121001 | 77 | 267 | 1.0 | 9.0 | 0.36 | 2.99 | 0.00 | 82 | 1011.4 |
| 20260507120520 | 77 | 277 | 3.0 | 8.0 | 0.37 | 2.96 | 0.00 | 82 | 1011.3 |
| 20260507120452 | 77 | 153 | 4.0 | 8.0 | 0.37 | 2.96 | 0.00 | 82 | 1011.3 |
| 20260507120020 | 77 | 235 | 4.0 | 6.0 | 0.38 | 2.96 | 0.00 | 81 | 1011.2 |
| 20260507115941 | 77 | 215 | 2.0 | 5.0 | 0.38 | 2.96 | 0.00 | 81 | 1011.2 |
| 20260507115520 | 77 | 289 | 1.0 | 7.0 | 0.36 | 2.91 | 0.00 | 81 | 1011.2 |
| 20260507115431 | 77 | 259 | 1.0 | 7.0 | 0.37 | 2.91 | 0.00 | 81 | 1011.2 |
| 20260507115020 | 77 | 224 | 3.0 | 8.0 | 0.36 | 2.88 | 0.00 | 81 | 1011.1 |
| 20260507114921 | 77 | 249 | 3.0 | 8.0 | 0.37 | 2.88 | 0.00 | 81 | 1011.1 |
| 20260507114520 | 77 | 238 | 3.0 | 6.0 | 0.35 | 2.84 | 0.00 | 81 | 1011.0 |
| 20260507114411 | 78 | 279 | 1.0 | 6.0 | 0.35 | 2.84 | 0.00 | 81 | 1011.0 |
| 20260507114019 | 78 | 232 | 2.0 | 7.0 | 0.34 | 2.82 | 0.00 | 81 | 1010.9 |
| 20260507113901 | 78 | 297 | 2.0 | 7.0 | 0.30 | 2.78 | 0.00 | 81 | 1010.9 |
| 20260507113520 | 78 | 295 | 1.0 | 3.0 | 0.33 | 2.78 | 0.00 | 81 | 1011.0 |
| 20260507113351 | 77 | 272 | 2.0 | 3.0 | 0.33 | 2.78 | 0.00 | 81 | 1011.0 |
| 20260507113019 | 77 | 324 | 0.0 | 8.0 | 0.31 | 2.75 | 0.00 | 81 | 1011.0 |
| 20260507112841 | 78 | 29 | 2.0 | 8.0 | 0.30 | 2.72 | 0.00 | 81 | 1011.0 |
| 20260507112520 | 78 | 215 | 5.0 | 7.0 | 0.28 | 2.70 | 0.00 | 81 | 1010.9 |
| 20260507112330 | 78 | 307 | 1.0 | 7.0 | 0.28 | 2.69 | 0.00 | 81 | 1010.9 |
| 20260507112019 | 78 | 346 | 2.0 | 7.0 | 0.28 | 2.69 | 0.00 | 81 | 1010.8 |
| 20260507111821 | 78 | 147 | 0.0 | 10.0 | 0.27 | 2.66 | 0.00 | 80 | 1010.8 |
| 20260507111520 | 78 | 248 | 4.0 | 10.0 | 0.25 | 2.65 | 0.00 | 80 | 1010.8 |
| 20260507111310 | 78 | 206 | 5.0 | 8.0 | 0.24 | 2.64 | 0.00 | 80 | 1010.9 |
| 20260507111019 | 78 | 247 | 4.0 | 7.0 | 0.23 | 2.63 | 0.00 | 80 | 1010.9 |
| 20260507110824 | 78 | 282 | 2.0 | 8.0 | 0.21 | 2.61 | 0.00 | 80 | 1010.9 |
| 20260507110520 | 78 | 238 | 3.0 | 8.0 | 0.18 | 2.58 | 0.00 | 80 | 1010.8 |
| 20260507110250 | 78 | 34 | 2.0 | 5.0 | 0.18 | 2.58 | 0.00 | 80 | 1010.9 |
| 20260507110019 | 78 | 187 | 1.0 | 3.0 | 0.17 | 2.57 | 0.00 | 80 | 1010.9 |
| 20260507105741 | 78 | 219 | 1.0 | 7.0 | 0.16 | 2.56 | 0.00 | 80 | 1010.8 |
| 20260507105519 | 78 | 276 | 3.0 | 7.0 | 0.15 | 2.55 | 0.00 | 80 | 1010.8 |
| 20260507105239 | 78 | 285 | 0.0 | 9.0 | 0.12 | 2.52 | 0.00 | 80 | 1010.8 |
| 20260507105020 | 78 | 336 | 3.0 | 11.0 | 0.11 | 2.51 | 0.00 | 80 | 1010.8 |
| 20260507104720 | 78 | 42 | 1.0 | 12.0 | 0.12 | 2.50 | 0.00 | 80 | 1010.8 |
| 20260507104519 | 78 | 59 | 5.0 | 12.0 | 0.11 | 2.49 | 0.00 | 80 | 1010.8 |
| 20260507104222 | 78 | 267 | 0.0 | 5.0 | 0.10 | 2.48 | 0.00 | 80 | 1010.7 |
| 20260507104020 | 78 | 132 | 1.0 | 5.0 | 0.10 | 2.48 | 0.00 | 80 | 1010.7 |
| 20260507103701 | 79 | 186 | 2.0 | 5.0 | 0.09 | 2.46 | 0.00 | 80 | 1010.7 |
| 20260507103519 | 79 | 19 | 0.0 | 6.0 | 0.08 | 2.45 | 0.00 | 80 | 1010.6 |
| 20260507103151 | 79 | 53 | 0.0 | 5.0 | 0.08 | 2.44 | 0.00 | 80 | 1010.6 |
| 20260507103020 | 79 | 23 | 0.0 | 5.0 | 0.07 | 2.43 | 0.00 | 79 | 1010.6 |
| 20260507102641 | 79 | 332 | 2.0 | 11.0 | 0.05 | 2.42 | 0.00 | 79 | 1010.5 |
| 20260507102519 | 79 | 355 | 6.0 | 12.0 | 0.05 | 2.42 | 0.00 | 79 | 1010.5 |
| 20260507102131 | 80 | 215 | 8.0 | 12.0 | 0.05 | 2.40 | 0.00 | 77 | 1010.4 |
| 20260507102019 | 80 | 185 | 5.0 | 12.0 | 0.05 | 2.40 | 0.00 | 77 | 1010.4 |
| 20260507101627 | 81 | 223 | 6.0 | 12.0 | 0.07 | 2.39 | 0.00 | 76 | 1010.4 |
| 20260507101519 | 81 | 243 | 6.0 | 10.0 | 0.07 | 2.39 | 0.00 | 76 | 1010.3 |
| 20260507101111 | 81 | 253 | 3.0 | 9.0 | 0.10 | 2.39 | 0.00 | 76 | 1010.4 |
| 20260507101019 | 81 | 266 | 0.0 | 9.0 | 0.11 | 2.39 | 0.00 | 76 | 1010.4 |
| 20260507100602 | 82 | 230 | 0.0 | 6.0 | 0.11 | 2.39 | 0.00 | 76 | 1010.4 |
| 20260507100519 | 82 | 272 | 2.0 | 6.0 | 0.11 | 2.39 | 0.00 | 76 | 1010.4 |
| 20260507100050 | 81 | 240 | 2.0 | 9.0 | 0.12 | 2.39 | 0.00 | 76 | 1010.4 |
| 20260507100019 | 81 | 279 | 3.0 | 9.0 | 0.12 | 2.39 | 0.00 | 76 | 1010.4 |
| 20260507095541 | 81 | 246 | 4.0 | 13.0 | 0.12 | 2.39 | 0.00 | 75 | 1010.3 |
| 20260507095030 | 82 | 222 | 6.0 | 9.0 | 0.14 | 2.39 | 0.00 | 75 | 1010.2 |
| 20260507095019 | 82 | 213 | 6.0 | 9.0 | 0.14 | 2.39 | 0.00 | 75 | 1010.2 |
| 20260507094522 | 81 | 317 | 6.0 | 14.0 | 0.12 | 2.37 | 0.00 | 75 | 1010.2 |
| 20260507094519 | 81 | 325 | 6.0 | 14.0 | 0.12 | 2.37 | 0.00 | 75 | 1010.2 |
| 20260507094019 | 83 | 257 | 6.0 | 11.0 | 0.14 | 2.37 | 0.00 | 74 | 1010.3 |
| 20260507094010 | 83 | 258 | 5.0 | 11.0 | 0.14 | 2.37 | 0.00 | 74 | 1010.3 |
| 20260507093519 | 83 | 220 | 4.0 | 13.0 | 0.15 | 2.37 | 0.00 | 74 | 1010.2 |
| 20260507093500 | 83 | 189 | 4.0 | 13.0 | 0.15 | 2.37 | 0.00 | 74 | 1010.2 |
| 20260507093018 | 83 | 254 | 4.0 | 10.0 | 0.17 | 2.36 | 0.00 | 74 | 1010.2 |
| 20260507092950 | 83 | 249 | 3.0 | 10.0 | 0.17 | 2.36 | 0.00 | 74 | 1010.2 |
| 20260507092519 | 83 | 230 | 3.0 | 10.0 | 0.20 | 2.37 | 0.00 | 74 | 1010.3 |
| 20260507092440 | 83 | 68 | 3.0 | 10.0 | 0.20 | 2.37 | 0.00 | 74 | 1010.3 |
| 20260507092018 | 83 | 252 | 7.0 | 10.0 | 0.22 | 2.36 | 0.00 | 72 | 1010.2 |
| 20260507091930 | 84 | 237 | 7.0 | 10.0 | 0.22 | 2.36 | 0.00 | 72 | 1010.2 |
| 20260507091420 | 84 | 253 | 2.0 | 11.0 | 0.22 | 2.33 | 0.00 | 74 | 1010.2 |
| 20260507091018 | 83 | 236 | 6.0 | 10.0 | 0.21 | 2.29 | 0.00 | 73 | 1010.2 |
| 20260507090910 | 83 | 227 | 5.0 | 8.0 | 0.21 | 2.29 | 0.00 | 74 | 1010.3 |
| 20260507090519 | 82 | 279 | 3.0 | 13.0 | 0.25 | 2.30 | 0.00 | 75 | 1010.2 |
| 20260507090400 | 82 | 181 | 7.0 | 15.0 | 0.27 | 2.30 | 0.00 | 74 | 1010.3 |
| 20260507090019 | 82 | 225 | 6.0 | 15.0 | 0.27 | 2.29 | 0.00 | 73 | 1010.3 |
| 20260507085850 | 83 | 227 | 6.0 | 13.0 | 0.28 | 2.29 | 0.00 | 73 | 1010.2 |
| 20260507085518 | 82 | 191 | 5.0 | 12.0 | 0.31 | 2.29 | 0.00 | 74 | 1010.2 |
| 20260507085339 | 82 | 297 | 6.0 | 12.0 | 0.33 | 2.27 | 0.00 | 74 | 1010.1 |
| 20260507085018 | 84 | 209 | 8.0 | 12.0 | 0.34 | 2.27 | 0.00 | 72 | 1010.1 |
| 20260507084830 | 84 | 340 | 2.0 | 11.0 | 0.36 | 2.27 | 0.00 | 72 | 1010.2 |
| 20260507084519 | 84 | 236 | 4.0 | 11.0 | 0.37 | 2.26 | 0.00 | 71 | 1010.2 |
| 20260507084319 | 85 | 42 | 5.0 | 11.0 | 0.38 | 2.26 | 0.00 | 72 | 1010.2 |
| 20260507084018 | 84 | 316 | 2.0 | 14.0 | 0.38 | 2.25 | 0.00 | 73 | 1010.1 |
| 20260507083810 | 84 | 39 | 5.0 | 14.0 | 0.38 | 2.24 | 0.00 | 72 | 1010.2 |
| 20260507083519 | 84 | 112 | 2.0 | 8.0 | 0.41 | 2.24 | 0.00 | 72 | 1010.2 |
| 20260507083300 | 84 | 360 | 1.0 | 7.0 | 0.40 | 2.24 | 0.00 | 73 | 1010.2 |
| 20260507083019 | 83 | 252 | 3.0 | 9.0 | 0.38 | 2.23 | 0.00 | 73 | 1010.2 |
| 20260507082749 | 83 | 358 | 3.0 | 9.0 | 0.42 | 2.24 | 0.00 | 72 | 1010.2 |
| 20260507082518 | 84 | 34 | 3.0 | 8.0 | 0.42 | 2.22 | 0.00 | 72 | 1010.2 |
| 20260507082240 | 84 | 237 | 2.0 | 10.0 | 0.43 | 2.22 | 0.00 | 72 | 1010.2 |
| 20260507082019 | 84 | 246 | 4.0 | 10.0 | 0.44 | 2.19 | 0.00 | 72 | 1010.2 |
| 20260507081729 | 84 | 262 | 3.0 | 10.0 | 0.47 | 2.18 | 0.00 | 73 | 1010.2 |
| 20260507081518 | 83 | 54 | 2.0 | 10.0 | 0.50 | 2.17 | 0.00 | 73 | 1010.3 |
| 20260507081219 | 83 | 192 | 1.0 | 9.0 | 0.49 | 2.14 | 0.00 | 74 | 1010.3 |
| 20260507081018 | 82 | 155 | 4.0 | 11.0 | 0.49 | 2.13 | 0.00 | 74 | 1010.3 |
| 20260507080709 | 82 | 52 | 6.0 | 13.0 | 0.47 | 2.12 | 0.00 | 74 | 1010.4 |
| 20260507080518 | 82 | 22 | 3.0 | 13.0 | 0.48 | 2.11 | 0.00 | 74 | 1010.4 |
| 20260507080018 | 83 | 37 | 7.0 | 13.0 | 0.50 | 2.10 | 0.00 | 74 | 1010.5 |
| 20260507075650 | 83 | 37 | 8.0 | 12.0 | 0.53 | 2.06 | 0.00 | 72 | 1010.6 |
| 20260507075518 | 84 | 25 | 8.0 | 12.0 | 0.56 | 2.06 | 0.00 | 72 | 1010.7 |
| 20260507075139 | 84 | 237 | 2.0 | 8.0 | 0.56 | 2.05 | 0.00 | 73 | 1010.6 |
| 20260507075018 | 84 | 66 | 2.0 | 8.0 | 0.55 | 2.04 | 0.00 | 73 | 1010.6 |
| 20260507074630 | 84 | 168 | 4.0 | 12.0 | 0.55 | 2.00 | 0.00 | 72 | 1010.8 |
| 20260507074518 | 84 | 248 | 6.0 | 12.0 | 0.54 | 1.99 | 0.00 | 72 | 1010.7 |
| 20260507074119 | 84 | 17 | 6.0 | 13.0 | 0.53 | 1.97 | 0.00 | 71 | 1010.7 |
| 20260507074018 | 85 | 37 | 6.0 | 13.0 | 0.54 | 1.98 | 0.00 | 70 | 1010.8 |
| 20260507073609 | 86 | 222 | 2.0 | 6.0 | 0.53 | 1.96 | 0.00 | 71 | 1010.8 |
| 20260507073518 | 85 | 277 | 2.0 | 6.0 | 0.51 | 1.94 | 0.00 | 71 | 1010.8 |
| 20260507073017 | 85 | 24 | 3.0 | 10.0 | 0.55 | 1.93 | 0.00 | 71 | 1010.7 |
| 20260507072549 | 85 | 336 | 5.0 | 11.0 | 0.53 | 1.87 | 0.00 | 70 | 1010.8 |
| 20260507072518 | 85 | 248 | 6.0 | 11.0 | 0.53 | 1.87 | 0.00 | 70 | 1010.9 |
| 20260507072040 | 85 | 186 | 6.0 | 11.0 | 0.53 | 1.81 | 0.00 | 71 | 1010.9 |
| 20260507072017 | 85 | 13 | 5.0 | 11.0 | 0.53 | 1.81 | 0.00 | 71 | 1010.9 |
| 20260507071529 | 84 | 340 | 2.0 | 13.0 | 0.48 | 1.74 | 0.00 | 72 | 1011.0 |
| 20260507071518 | 84 | 307 | 2.0 | 13.0 | 0.48 | 1.74 | 0.00 | 72 | 1011.0 |
| 20260507071020 | 83 | 266 | 5.0 | 17.0 | 0.50 | 1.72 | 0.00 | 75 | 1011.0 |
| 20260507071018 | 83 | 270 | 5.0 | 17.0 | 0.50 | 1.72 | 0.00 | 75 | 1011.0 |
| 20260507070517 | 82 | 277 | 6.0 | 15.0 | 0.50 | 1.68 | 0.00 | 76 | 1011.0 |
| 20260507070509 | 82 | 298 | 6.0 | 15.0 | 0.50 | 1.68 | 0.00 | 76 | 1011.1 |
| 20260507070018 | 82 | 192 | 12.0 | 20.0 | 0.51 | 1.64 | 0.00 | 73 | 1011.1 |
| 20260507065959 | 82 | 208 | 13.0 | 20.0 | 0.51 | 1.64 | 0.00 | 73 | 1011.1 |
| 20260507065517 | 83 | 275 | 6.0 | 14.0 | 0.43 | 1.53 | 0.00 | 73 | 1011.2 |
| 20260507065448 | 83 | 257 | 6.0 | 14.0 | 0.43 | 1.53 | 0.00 | 73 | 1011.2 |
| 20260507065017 | 83 | 262 | 4.0 | 18.0 | 0.46 | 1.51 | 0.00 | 73 | 1011.2 |
| 20260507064939 | 83 | 231 | 3.0 | 18.0 | 0.44 | 1.48 | 0.00 | 73 | 1011.2 |
| 20260507064517 | 85 | 238 | 6.0 | 12.0 | 0.47 | 1.47 | 0.00 | 71 | 1011.2 |
| 20260507064429 | 85 | 249 | 7.0 | 12.0 | 0.46 | 1.46 | 0.00 | 71 | 1011.3 |
| 20260507064017 | 84 | 275 | 5.0 | 14.0 | 0.46 | 1.47 | 0.00 | 72 | 1011.2 |
| 20260507063918 | 84 | 267 | 8.0 | 14.0 | 0.44 | 1.46 | 0.00 | 71 | 1011.2 |
| 20260507063517 | 85 | 298 | 7.0 | 13.0 | 0.47 | 1.46 | 0.00 | 71 | 1011.4 |
| 20260507063409 | 85 | 270 | 6.0 | 13.0 | 0.46 | 1.45 | 0.00 | 72 | 1011.3 |
| 20260507063018 | 84 | 256 | 6.0 | 12.0 | 0.46 | 1.41 | 0.00 | 73 | 1011.3 |
| 20260507062859 | 83 | 250 | 6.0 | 11.0 | 0.43 | 1.38 | 0.00 | 72 | 1011.4 |
| 20260507062517 | 84 | 231 | 6.0 | 16.0 | 0.44 | 1.38 | 0.00 | 73 | 1011.4 |
| 20260507062349 | 83 | 252 | 5.0 | 18.0 | 0.44 | 1.35 | 0.00 | 74 | 1011.4 |
| 20260507062017 | 82 | 251 | 11.0 | 18.0 | 0.43 | 1.32 | 0.00 | 73 | 1011.5 |
| 20260507061839 | 83 | 212 | 9.0 | 18.0 | 0.43 | 1.32 | 0.00 | 73 | 1011.5 |
| 20260507061517 | 83 | 272 | 6.0 | 16.0 | 0.40 | 1.28 | 0.00 | 73 | 1011.6 |
| 20260507061328 | 83 | 201 | 8.0 | 16.0 | 0.38 | 1.27 | 0.00 | 72 | 1011.6 |
| 20260507061017 | 82 | 191 | 4.0 | 15.0 | 0.35 | 1.24 | 0.00 | 75 | 1011.7 |
| 20260507060819 | 82 | 247 | 6.0 | 15.0 | 0.36 | 1.24 | 0.00 | 74 | 1011.7 |
| 20260507060517 | 82 | 255 | 6.0 | 14.0 | 0.35 | 1.20 | 0.00 | 75 | 1011.7 |
| 20260507060308 | 82 | 21 | 9.0 | 15.0 | 0.34 | 1.16 | 0.00 | 74 | 1011.7 |
| 20260507060017 | 82 | 139 | 6.0 | 15.0 | 0.33 | 1.14 | 0.00 | 74 | 1011.7 |
| 20260507055759 | 82 | 257 | 6.0 | 14.0 | 0.31 | 1.13 | 0.00 | 74 | 1011.7 |
| 20260507055518 | 82 | 240 | 9.0 | 14.0 | 0.31 | 1.12 | 0.00 | 74 | 1011.8 |
| 20260507055248 | 82 | 240 | 5.0 | 12.0 | 0.30 | 1.09 | 0.00 | 74 | 1011.8 |
| 20260507055017 | 82 | 150 | 8.0 | 14.0 | 0.28 | 1.08 | 0.00 | 74 | 1011.8 |
| 20260507054738 | 82 | 242 | 7.0 | 14.0 | 0.25 | 1.06 | 0.00 | 73 | 1011.8 |
| 20260507054516 | 82 | 241 | 8.0 | 13.0 | 0.25 | 1.03 | 0.00 | 73 | 1011.8 |
| 20260507054228 | 83 | 221 | 8.0 | 13.0 | 0.25 | 1.02 | 0.00 | 73 | 1011.8 |
| 20260507054017 | 83 | 241 | 3.0 | 14.0 | 0.28 | 1.02 | 0.00 | 74 | 1011.8 |
| 20260507053718 | 83 | 186 | 9.0 | 14.0 | 0.29 | 1.02 | 0.00 | 73 | 1011.8 |
| 20260507053517 | 83 | 184 | 6.0 | 11.0 | 0.29 | 1.02 | 0.00 | 71 | 1011.9 |
| 20260507053208 | 84 | 294 | 6.0 | 11.0 | 0.27 | 1.00 | 0.00 | 70 | 1011.9 |
| 20260507053017 | 85 | 60 | 2.0 | 11.0 | 0.25 | 0.99 | 0.00 | 71 | 1011.8 |
| 20260507052658 | 85 | 223 | 4.0 | 10.0 | 0.24 | 0.98 | 0.00 | 71 | 1011.9 |
| 20260507052517 | 84 | 10 | 4.0 | 11.0 | 0.23 | 0.96 | 0.00 | 72 | 1011.9 |
| 20260507052148 | 84 | 216 | 6.0 | 11.0 | 0.20 | 0.92 | 0.00 | 71 | 1011.9 |
| 20260507052017 | 85 | 248 | 5.0 | 10.0 | 0.20 | 0.92 | 0.00 | 70 | 1011.9 |
| 20260507051638 | 84 | 193 | 3.0 | 10.0 | 0.20 | 0.92 | 0.00 | 71 | 1011.9 |
| 20260507051517 | 84 | 320 | 2.0 | 11.0 | 0.20 | 0.93 | 0.00 | 72 | 1011.9 |
| 20260507051128 | 83 | 286 | 3.0 | 13.0 | 0.22 | 0.93 | 0.00 | 73 | 1012.0 |
| 20260507051016 | 83 | 66 | 2.0 | 13.0 | 0.22 | 0.93 | 0.00 | 73 | 1012.0 |
| 20260507050618 | 83 | 207 | 8.0 | 12.0 | 0.20 | 0.89 | 0.00 | 72 | 1012.1 |
| 20260507050517 | 83 | 78 | 4.0 | 12.0 | 0.20 | 0.89 | 0.00 | 73 | 1012.1 |
| 20260507050108 | 83 | 208 | 4.0 | 13.0 | 0.18 | 0.86 | 0.00 | 74 | 1012.1 |
| 20260507050017 | 83 | 328 | 1.0 | 13.0 | 0.18 | 0.86 | 0.00 | 74 | 1012.2 |
| 20260507045558 | 83 | 250 | 6.0 | 11.0 | 0.17 | 0.85 | 0.00 | 73 | 1012.2 |
| 20260507045517 | 83 | 275 | 7.0 | 12.0 | 0.17 | 0.85 | 0.00 | 73 | 1012.1 |
| 20260507045048 | 82 | 247 | 5.0 | 16.0 | 0.21 | 0.85 | 0.00 | 74 | 1012.1 |
| 20260507045017 | 82 | 226 | 5.0 | 16.0 | 0.21 | 0.85 | 0.00 | 74 | 1012.2 |
| 20260507044538 | 82 | 229 | 10.0 | 15.0 | 0.18 | 0.83 | 0.00 | 74 | 1012.2 |
| 20260507044516 | 82 | 248 | 10.0 | 15.0 | 0.18 | 0.83 | 0.00 | 74 | 1012.2 |
| 20260507044028 | 81 | 226 | 8.0 | 17.0 | 0.17 | 0.80 | 0.00 | 74 | 1012.2 |
| 20260507044017 | 81 | 206 | 9.0 | 17.0 | 0.17 | 0.80 | 0.00 | 74 | 1012.2 |
| 20260507043518 | 81 | 263 | 7.0 | 16.0 | 0.14 | 0.76 | 0.00 | 74 | 1012.4 |
| 20260507043516 | 81 | 298 | 7.0 | 16.0 | 0.14 | 0.76 | 0.00 | 74 | 1012.4 |
| 20260507043016 | 81 | 294 | 5.0 | 18.0 | 0.14 | 0.76 | 0.00 | 74 | 1012.4 |
| 20260507043008 | 81 | 208 | 6.0 | 18.0 | 0.14 | 0.77 | 0.00 | 74 | 1012.4 |
| 20260507042517 | 82 | 233 | 9.0 | 16.0 | 0.14 | 0.79 | 0.00 | 73 | 1012.4 |
| 20260507042457 | 82 | 291 | 10.0 | 16.0 | 0.14 | 0.79 | 0.00 | 72 | 1012.3 |
| 20260507042016 | 83 | 252 | 6.0 | 11.0 | 0.12 | 0.77 | 0.00 | 72 | 1012.5 |
| 20260507041948 | 83 | 233 | 6.0 | 11.0 | 0.12 | 0.77 | 0.00 | 72 | 1012.5 |
| 20260507041517 | 83 | 265 | 5.0 | 17.0 | 0.14 | 0.77 | 0.00 | 73 | 1012.4 |
| 20260507041438 | 83 | 311 | 3.0 | 17.0 | 0.14 | 0.77 | 0.00 | 73 | 1012.5 |
| 20260507041015 | 83 | 248 | 6.0 | 11.0 | 0.11 | 0.75 | 0.00 | 72 | 1012.5 |
| 20260507040927 | 84 | 232 | 3.0 | 9.0 | 0.11 | 0.75 | 0.00 | 73 | 1012.6 |
| 20260507040516 | 82 | 317 | 3.0 | 12.0 | 0.10 | 0.74 | 0.00 | 73 | 1012.6 |
| 20260507040418 | 82 | 260 | 6.0 | 12.0 | 0.11 | 0.74 | 0.00 | 73 | 1012.6 |
| 20260507040016 | 82 | 200 | 7.0 | 16.0 | 0.14 | 0.72 | 0.00 | 74 | 1012.8 |
| 20260507035907 | 82 | 236 | 9.0 | 16.0 | 0.14 | 0.72 | 0.00 | 73 | 1012.7 |
| 20260507035516 | 82 | 164 | 7.0 | 16.0 | 0.14 | 0.72 | 0.00 | 73 | 1012.8 |
| 20260507035358 | 82 | 262 | 7.0 | 16.0 | 0.12 | 0.70 | 0.00 | 72 | 1012.8 |
| 20260507035016 | 83 | 242 | 5.0 | 11.0 | 0.10 | 0.67 | 0.00 | 72 | 1012.8 |
| 20260507034847 | 84 | 231 | 6.0 | 11.0 | 0.10 | 0.67 | 0.00 | 71 | 1012.9 |
| 20260507034516 | 85 | 227 | 5.0 | 9.0 | 0.14 | 0.67 | 0.00 | 71 | 1012.9 |
| 20260507034337 | 85 | 285 | 3.0 | 15.0 | 0.12 | 0.66 | 0.00 | 71 | 1012.9 |
| 20260507034016 | 85 | 56 | 4.0 | 15.0 | 0.11 | 0.64 | 0.00 | 71 | 1013.0 |
| 20260507033828 | 85 | 355 | 6.0 | 11.0 | 0.11 | 0.64 | 0.00 | 72 | 1013.0 |
| 20260507033516 | 85 | 252 | 6.0 | 10.0 | 0.11 | 0.64 | 0.00 | 70 | 1013.1 |
| 20260507033317 | 85 | 224 | 6.0 | 8.0 | 0.11 | 0.64 | 0.00 | 71 | 1013.1 |
| 20260507033016 | 85 | 321 | 2.0 | 10.0 | 0.12 | 0.64 | 0.00 | 71 | 1013.1 |
| 20260507032807 | 85 | 172 | 3.0 | 10.0 | 0.12 | 0.64 | 0.00 | 71 | 1013.2 |
| 20260507032516 | 85 | 44 | 1.0 | 10.0 | 0.12 | 0.64 | 0.00 | 71 | 1013.2 |
| 20260507032257 | 85 | 246 | 4.0 | 15.0 | 0.12 | 0.64 | 0.00 | 72 | 1013.2 |
| 20260507032016 | 84 | 54 | 3.0 | 15.0 | 0.12 | 0.64 | 0.00 | 72 | 1013.2 |
| 20260507031747 | 83 | 36 | 3.0 | 11.0 | 0.14 | 0.63 | 0.00 | 72 | 1013.2 |
| 20260507031517 | 83 | 137 | 2.0 | 10.0 | 0.14 | 0.63 | 0.00 | 73 | 1013.2 |
| 20260507031237 | 82 | 290 | 5.0 | 14.0 | 0.14 | 0.63 | 0.00 | 73 | 1013.3 |
| 20260507031016 | 83 | 241 | 10.0 | 14.0 | 0.14 | 0.63 | 0.00 | 72 | 1013.3 |
| 20260507030727 | 83 | 214 | 10.0 | 14.0 | 0.14 | 0.63 | 0.00 | 71 | 1013.3 |
| 20260507030516 | 84 | 225 | 3.0 | 8.0 | 0.14 | 0.63 | 0.00 | 72 | 1013.3 |
| 20260507030218 | 84 | 244 | 5.0 | 10.0 | 0.09 | 0.59 | 0.00 | 72 | 1013.4 |
| 20260507030015 | 83 | 333 | 3.0 | 15.0 | 0.08 | 0.57 | 0.00 | 73 | 1013.4 |
| 20260507025707 | 83 | 64 | 6.0 | 11.0 | 0.09 | 0.57 | 0.00 | 73 | 1013.4 |
| 20260507025516 | 82 | 271 | 5.0 | 13.0 | 0.09 | 0.57 | 0.00 | 73 | 1013.4 |
| 20260507025157 | 83 | 250 | 4.0 | 13.0 | 0.09 | 0.56 | 0.00 | 72 | 1013.4 |
| 20260507025016 | 83 | 225 | 6.0 | 16.0 | 0.09 | 0.56 | 0.00 | 73 | 1013.5 |
| 20260507024647 | 82 | 291 | 7.0 | 17.0 | 0.07 | 0.53 | 0.00 | 73 | 1013.5 |
| 20260507024515 | 83 | 360 | 8.0 | 17.0 | 0.07 | 0.53 | 0.00 | 72 | 1013.4 |
| 20260507024137 | 83 | 327 | 4.0 | 13.0 | 0.10 | 0.53 | 0.00 | 72 | 1013.3 |
| 20260507024016 | 83 | 34 | 3.0 | 13.0 | 0.10 | 0.53 | 0.00 | 72 | 1013.4 |
| 20260507023627 | 84 | 15 | 4.0 | 11.0 | 0.10 | 0.53 | 0.00 | 73 | 1013.4 |
| 20260507023515 | 83 | 280 | 4.0 | 11.0 | 0.11 | 0.53 | 0.00 | 72 | 1013.4 |
| 20260507023117 | 83 | 335 | 6.0 | 11.0 | 0.12 | 0.51 | 0.00 | 72 | 1013.5 |
| 20260507023016 | 83 | 359 | 5.0 | 11.0 | 0.12 | 0.51 | 0.00 | 72 | 1013.5 |
| 20260507022606 | 83 | 298 | 6.0 | 11.0 | 0.14 | 0.51 | 0.00 | 72 | 1013.6 |
| 20260507022515 | 83 | 339 | 5.0 | 11.0 | 0.14 | 0.51 | 0.00 | 72 | 1013.6 |
| 20260507022016 | 82 | 284 | 5.0 | 10.0 | 0.12 | 0.50 | 0.00 | 74 | 1013.5 |
| 20260507021546 | 82 | 253 | 7.0 | 12.0 | 0.12 | 0.49 | 0.00 | 74 | 1013.6 |
| 20260507021515 | 82 | 295 | 5.0 | 12.0 | 0.12 | 0.49 | 0.00 | 74 | 1013.5 |
| 20260507021037 | 82 | 264 | 8.0 | 14.0 | 0.12 | 0.49 | 0.00 | 73 | 1013.6 |
| 20260507021016 | 82 | 296 | 7.0 | 14.0 | 0.12 | 0.49 | 0.00 | 73 | 1013.6 |
| 20260507020526 | 82 | 199 | 5.0 | 11.0 | 0.14 | 0.49 | 0.00 | 75 | 1013.6 |
| 20260507020516 | 82 | 303 | 5.0 | 11.0 | 0.14 | 0.49 | 0.00 | 75 | 1013.6 |
| 20260507020015 | 81 | 248 | 7.0 | 15.0 | 0.15 | 0.49 | 0.00 | 74 | 1013.5 |
| 20260507015516 | 82 | 279 | 3.0 | 9.0 | 0.14 | 0.48 | 0.00 | 76 | 1013.5 |
| 20260507015506 | 82 | 322 | 3.0 | 9.0 | 0.14 | 0.48 | 0.00 | 76 | 1013.5 |
| 20260507015015 | 81 | 177 | 1.0 | 10.0 | 0.12 | 0.47 | 0.00 | 76 | 1013.5 |
| 20260507014956 | 81 | 239 | 1.0 | 10.0 | 0.12 | 0.47 | 0.00 | 76 | 1013.5 |
| 20260507014515 | 81 | 42 | 3.0 | 9.0 | 0.11 | 0.46 | 0.00 | 76 | 1013.6 |
| 20260507014447 | 81 | 23 | 4.0 | 9.0 | 0.11 | 0.46 | 0.00 | 77 | 1013.6 |
| 20260507013936 | 80 | 239 | 3.0 | 7.0 | 0.10 | 0.42 | 0.00 | 79 | 1013.5 |
| 20260507013515 | 79 | 8 | 3.0 | 7.0 | 0.09 | 0.41 | 0.00 | 80 | 1013.6 |
| 20260507013426 | 79 | 5 | 2.0 | 7.0 | 0.09 | 0.41 | 0.00 | 80 | 1013.6 |
| 20260507013015 | 78 | 283 | 0.0 | 6.0 | 0.07 | 0.38 | 0.00 | 81 | 1013.6 |
| 20260507012916 | 78 | 336 | 2.0 | 6.0 | 0.07 | 0.38 | 0.00 | 81 | 1013.6 |
| 20260507012515 | 78 | 44 | 1.0 | 4.0 | 0.05 | 0.37 | 0.00 | 81 | 1013.6 |
| 20260507012406 | 78 | 36 | 2.0 | 8.0 | 0.05 | 0.37 | 0.00 | 81 | 1013.6 |
| 20260507012015 | 78 | 12 | 3.0 | 10.0 | 0.05 | 0.37 | 0.00 | 81 | 1013.5 |
| 20260507011857 | 78 | 119 | 5.0 | 11.0 | 0.05 | 0.37 | 0.00 | 81 | 1013.5 |
| 20260507011515 | 78 | 51 | 6.0 | 11.0 | 0.05 | 0.36 | 0.00 | 81 | 1013.5 |
| 20260507011346 | 78 | 104 | 3.0 | 8.0 | 0.05 | 0.36 | 0.00 | 82 | 1013.5 |
| 20260507010836 | 77 | 239 | 2.0 | 13.0 | 0.05 | 0.36 | 0.00 | 82 | 1013.5 |
| 20260507010514 | 77 | 62 | 4.0 | 13.0 | 0.04 | 0.35 | 0.00 | 81 | 1013.5 |
| 20260507010015 | 77 | 56 | 6.0 | 10.0 | 0.03 | 0.34 | 0.00 | 81 | 1013.5 |
| 20260507005816 | 77 | 16 | 3.0 | 5.0 | 0.03 | 0.34 | 0.00 | 82 | 1013.4 |
| 20260507005515 | 77 | 96 | 2.0 | 10.0 | 0.03 | 0.34 | 0.00 | 82 | 1013.4 |
| 20260507005015 | 77 | 30 | 3.0 | 8.0 | 0.04 | 0.34 | 0.00 | 83 | 1013.4 |
| 20260507004755 | 77 | 252 | 1.0 | 8.0 | 0.04 | 0.34 | 0.00 | 83 | 1013.4 |
| 20260507004514 | 77 | 359 | 5.0 | 9.0 | 0.04 | 0.34 | 0.00 | 83 | 1013.4 |
| 20260507004246 | 77 | 47 | 3.0 | 9.0 | 0.03 | 0.33 | 0.00 | 83 | 1013.5 |
| 20260507004015 | 77 | 191 | 1.0 | 8.0 | 0.02 | 0.31 | 0.00 | 83 | 1013.5 |
| 20260507003736 | 77 | 8 | 4.0 | 8.0 | 0.02 | 0.31 | 0.00 | 83 | 1013.5 |
| 20260507003515 | 77 | 57 | 3.0 | 6.0 | 0.02 | 0.31 | 0.00 | 83 | 1013.5 |
| 20260507003226 | 76 | 268 | 1.0 | 14.0 | 0.02 | 0.31 | 0.00 | 83 | 1013.5 |
| 20260507003014 | 76 | 155 | 8.0 | 14.0 | 0.02 | 0.31 | 0.00 | 83 | 1013.6 |
| 20260507002715 | 77 | 209 | 1.0 | 9.0 | 0.02 | 0.31 | 0.00 | 83 | 1013.5 |
| 20260507002514 | 77 | 60 | 4.0 | 10.0 | 0.02 | 0.31 | 0.00 | 83 | 1013.5 |
| 20260507002206 | 76 | 10 | 4.0 | 10.0 | 0.02 | 0.31 | 0.00 | 83 | 1013.5 |
| 20260507002014 | 77 | 242 | 4.0 | 11.0 | 0.02 | 0.31 | 0.00 | 83 | 1013.5 |
| 20260507001656 | 76 | 54 | 2.0 | 10.0 | 0.02 | 0.31 | 0.00 | 83 | 1013.4 |
| 20260507001515 | 76 | 74 | 4.0 | 8.0 | 0.01 | 0.30 | 0.00 | 83 | 1013.4 |
| 20260507001145 | 77 | 47 | 1.0 | 9.0 | 0.01 | 0.30 | 0.00 | 83 | 1013.5 |
| 20260507001014 | 76 | 301 | 1.0 | 9.0 | 0.01 | 0.30 | 0.00 | 83 | 1013.4 |
| 20260507000636 | 77 | 41 | 1.0 | 8.0 | 0.01 | 0.30 | 0.00 | 83 | 1013.4 |
| 20260507000514 | 77 | 320 | 3.0 | 8.0 | 0.01 | 0.30 | 0.00 | 83 | 1013.4 |
| 20260507000126 | 76 | 27 | 1.0 | 9.0 | 0.01 | 0.30 | 0.00 | 83 | 1013.3 |
| 20260507000014 | 76 | 51 | 1.0 | 9.0 | 0.01 | 0.30 | 0.00 | 84 | 1013.3 |
| 20260506235616 | 76 | 27 | 3.0 | 9.0 | 0.01 | 0.30 | 0.00 | 84 | 1013.3 |
| 20260506235514 | 76 | 27 | 2.0 | 9.0 | 0.01 | 0.30 | 0.00 | 84 | 1013.3 |
| 20260506235105 | 76 | 138 | 3.0 | 7.0 | 0.00 | 0.29 | 0.00 | 84 | 1013.3 |
| 20260506235014 | 76 | 4 | 1.0 | 7.0 | 0.00 | 0.29 | 0.00 | 84 | 1013.4 |
| 20260506234555 | 76 | 72 | 1.0 | 11.0 | 0.00 | 0.29 | 0.00 | 84 | 1013.4 |
| 20260506234514 | 76 | 31 | 2.0 | 11.0 | 0.00 | 0.29 | 0.00 | 84 | 1013.4 |
| 20260506234046 | 76 | 22 | 3.0 | 7.0 | 0.00 | 0.29 | 0.00 | 84 | 1013.3 |
| 20260506234015 | 76 | 49 | 2.0 | 7.0 | 0.00 | 0.29 | 0.00 | 84 | 1013.3 |
| 20260506233535 | 76 | 56 | 2.0 | 6.0 | 0.00 | 0.29 | 0.00 | 85 | 1013.3 |
| 20260506233514 | 76 | 73 | 2.0 | 6.0 | 0.00 | 0.29 | 0.00 | 85 | 1013.3 |
| 20260506233025 | 76 | 359 | 0.0 | 7.0 | 0.00 | 0.29 | 0.00 | 85 | 1013.3 |
| 20260506233014 | 76 | 19 | 0.0 | 7.0 | 0.00 | 0.29 | 0.00 | 85 | 1013.2 |
| 20260506232517 | 76 | 47 | 2.0 | 10.0 | 0.00 | 0.29 | 0.00 | 85 | 1013.3 |
| 20260506232514 | 76 | 49 | 2.0 | 10.0 | 0.00 | 0.29 | 0.00 | 85 | 1013.2 |
| 20260506232014 | 75 | 22 | 3.0 | 7.0 | 0.00 | 0.29 | 0.00 | 85 | 1013.2 |
| 20260506231514 | 75 | 29 | 0.0 | 7.0 | 0.00 | 0.29 | 0.00 | 85 | 1013.1 |
| 20260506231455 | 75 | 36 | 0.0 | 7.0 | 0.00 | 0.29 | 0.00 | 85 | 1013.2 |
| 20260506231014 | 75 | 1 | 2.0 | 8.0 | 0.00 | 0.29 | 0.00 | 85 | 1013.1 |
| 20260506230946 | 75 | 5 | 5.0 | 9.0 | 0.00 | 0.29 | 0.00 | 85 | 1013.1 |
| 20260506230514 | 75 | 91 | 5.0 | 10.0 | 0.00 | 0.29 | 0.00 | 85 | 1013.1 |
| 20260506230435 | 75 | 75 | 4.0 | 10.0 | 0.00 | 0.29 | 0.00 | 85 | 1013.1 |
| 20260506230014 | 75 | 14 | 4.0 | 12.0 | 0.00 | 0.29 | 0.00 | 85 | 1013.1 |
| 20260506225925 | 75 | 42 | 4.0 | 12.0 | 0.00 | 0.29 | 0.00 | 85 | 1013.0 |
| 20260506225513 | 75 | 47 | 2.0 | 6.0 | 0.00 | 0.29 | 0.00 | 85 | 1013.0 |
| 20260506225415 | 75 | 279 | 2.0 | 8.0 | 0.00 | 0.29 | 0.00 | 85 | 1013.0 |
| 20260506225014 | 75 | 24 | 3.0 | 10.0 | 0.00 | 0.29 | 0.00 | 85 | 1013.0 |
| 20260506224905 | 75 | 360 | 2.0 | 10.0 | 0.00 | 0.29 | 0.00 | 85 | 1013.0 |
| 20260506224514 | 75 | 78 | 4.0 | 13.0 | 0.00 | 0.29 | 0.00 | 85 | 1013.0 |
| 20260506224355 | 75 | 55 | 2.0 | 13.0 | 0.00 | 0.29 | 0.00 | 85 | 1012.9 |
| 20260506224013 | 75 | 78 | 4.0 | 10.0 | 0.00 | 0.29 | 0.00 | 85 | 1012.9 |
| 20260506223514 | 75 | 22 | 3.0 | 9.0 | 0.00 | 0.29 | 0.00 | 85 | 1013.0 |
| 20260506223335 | 75 | 27 | 2.0 | 10.0 | 0.00 | 0.29 | 0.00 | 85 | 1013.0 |
| 20260506223013 | 75 | 39 | 3.0 | 10.0 | 0.00 | 0.29 | 0.00 | 85 | 1012.9 |
| 20260506222825 | 75 | 72 | 1.0 | 11.0 | 0.00 | 0.29 | 0.00 | 85 | 1012.9 |
| 20260506222514 | 75 | 53 | 3.0 | 11.0 | 0.00 | 0.29 | 0.00 | 85 | 1012.9 |
| 20260506222315 | 75 | 66 | 4.0 | 6.0 | 0.00 | 0.29 | 0.00 | 85 | 1012.9 |
| 20260506222014 | 75 | 294 | 2.0 | 5.0 | 0.00 | 0.29 | 0.00 | 85 | 1012.9 |
| 20260506221804 | 75 | 335 | 1.0 | 6.0 | 0.00 | 0.29 | 0.00 | 85 | 1012.8 |
| 20260506221513 | 75 | 42 | 1.0 | 6.0 | 0.00 | 0.29 | 0.00 | 85 | 1012.8 |
| 20260506221255 | 75 | 36 | 2.0 | 8.0 | 0.00 | 0.29 | 0.00 | 85 | 1012.8 |
| 20260506221014 | 75 | 27 | 3.0 | 8.0 | 0.00 | 0.29 | 0.00 | 85 | 1012.7 |
| 20260506220745 | 75 | 99 | 3.0 | 7.0 | 0.00 | 0.29 | 0.00 | 85 | 1012.7 |
| 20260506220513 | 75 | 55 | 0.0 | 8.0 | 0.00 | 0.29 | 0.00 | 85 | 1012.8 |
| 20260506220013 | 75 | 35 | 1.0 | 10.0 | 0.00 | 0.29 | 0.00 | 85 | 1012.7 |
| 20260506215725 | 75 | 239 | 7.0 | 10.0 | 0.00 | 0.29 | 0.00 | 85 | 1012.6 |
| 20260506215515 | 75 | 269 | 3.0 | 7.0 | 0.00 | 0.29 | 0.00 | 85 | 1012.6 |
| 20260506215214 | 75 | 344 | 1.0 | 8.0 | 0.00 | 0.29 | 0.00 | 85 | 1012.5 |
| 20260506215013 | 75 | 340 | 3.0 | 8.0 | 0.00 | 0.29 | 0.00 | 85 | 1012.5 |
| 20260506214704 | 75 | 100 | 1.0 | 7.0 | 0.00 | 0.29 | 0.00 | 85 | 1012.5 |
| 20260506214513 | 75 | 77 | 1.0 | 6.0 | 0.00 | 0.29 | 0.00 | 85 | 1012.5 |
| 20260506214155 | 75 | 306 | 0.0 | 9.0 | 0.00 | 0.29 | 0.00 | 85 | 1012.4 |
| 20260506214014 | 75 | 34 | 5.0 | 9.0 | 0.00 | 0.29 | 0.00 | 85 | 1012.4 |
| 20260506213644 | 75 | 41 | 6.0 | 9.0 | 0.00 | 0.29 | 0.00 | 85 | 1012.4 |
| 20260506213513 | 75 | 39 | 3.0 | 8.0 | 0.00 | 0.29 | 0.00 | 85 | 1012.3 |
| 20260506213135 | 75 | 71 | 3.0 | 7.0 | 0.00 | 0.29 | 0.00 | 85 | 1012.4 |
| 20260506213013 | 75 | 217 | 1.0 | 6.0 | 0.00 | 0.29 | 0.00 | 85 | 1012.3 |
| 20260506212624 | 75 | 29 | 1.0 | 5.0 | 0.00 | 0.29 | 0.00 | 85 | 1012.3 |
| 20260506212513 | 75 | 30 | 1.0 | 5.0 | 0.00 | 0.29 | 0.00 | 85 | 1012.3 |
| 20260506212115 | 75 | 57 | 1.0 | 3.0 | 0.00 | 0.29 | 0.00 | 85 | 1012.2 |
| 20260506212013 | 75 | 27 | 0.0 | 2.0 | 0.00 | 0.29 | 0.00 | 85 | 1012.3 |
| 20260506211513 | 75 | 190 | 1.0 | 2.0 | 0.00 | 0.29 | 0.00 | 85 | 1012.2 |
| 20260506211054 | 75 | 286 | 0.0 | 4.0 | 0.00 | 0.29 | 0.00 | 85 | 1012.1 |
| 20260506211013 | 75 | 326 | 1.0 | 4.0 | 0.00 | 0.29 | 0.00 | 85 | 1012.1 |
| 20260506210545 | 75 | 245 | 1.0 | 3.0 | 0.00 | 0.29 | 0.00 | 85 | 1012.1 |
| 20260506210034 | 75 | 20 | 0.0 | 4.0 | 0.00 | 0.29 | 0.00 | 85 | 1012.1 |
| 20260506210012 | 75 | 43 | 0.0 | 4.0 | 0.00 | 0.29 | 0.00 | 85 | 1012.0 |
| 20260506205524 | 75 | 116 | 3.0 | 5.0 | 0.00 | 0.29 | 0.00 | 85 | 1011.9 |
| 20260506205513 | 75 | 96 | 2.0 | 5.0 | 0.00 | 0.29 | 0.00 | 85 | 1011.9 |
| 20260506205016 | 75 | 9 | 3.0 | 6.0 | 0.00 | 0.29 | 0.00 | 85 | 1011.9 |
| 20260506205013 | 75 | 357 | 2.0 | 6.0 | 0.00 | 0.29 | 0.00 | 85 | 1012.0 |
| 20260506204512 | 75 | 28 | 1.0 | 8.0 | 0.00 | 0.29 | 0.00 | 85 | 1012.0 |
| 20260506204504 | 75 | 36 | 1.0 | 8.0 | 0.00 | 0.29 | 0.00 | 85 | 1012.0 |
| 20260506204013 | 75 | 30 | 3.0 | 4.0 | 0.00 | 0.29 | 0.00 | 85 | 1012.0 |
| 20260506203954 | 75 | 72 | 2.0 | 4.0 | 0.00 | 0.29 | 0.00 | 85 | 1012.0 |
| 20260506203513 | 75 | 335 | 0.0 | 1.0 | 0.00 | 0.29 | 0.00 | 85 | 1012.0 |
| 20260506203444 | 75 | 352 | 0.0 | 1.0 | 0.00 | 0.29 | 0.00 | 85 | 1012.0 |
| 20260506203013 | 75 | 310 | 0.0 | 1.0 | 0.00 | 0.29 | 0.00 | 85 | 1011.9 |
| 20260506202935 | 75 | 13 | 1.0 | 1.0 | 0.00 | 0.29 | 0.00 | 85 | 1011.9 |
| 20260506202512 | 75 | 356 | 0.0 | 1.0 | 0.00 | 0.29 | 0.00 | 85 | 1012.0 |
| 20260506202424 | 75 | 302 | 0.0 | 1.0 | 0.00 | 0.29 | 0.00 | 85 | 1011.9 |
| 20260506202013 | 75 | 234 | 0.0 | 4.0 | 0.00 | 0.29 | 0.00 | 85 | 1011.9 |
| 20260506201914 | 75 | 360 | 0.0 | 4.0 | 0.00 | 0.29 | 0.00 | 85 | 1011.9 |
| 20260506201513 | 75 | 94 | 1.0 | 4.0 | 0.00 | 0.29 | 0.00 | 85 | 1011.9 |
| 20260506201403 | 75 | 21 | 2.0 | 4.0 | 0.00 | 0.29 | 0.00 | 85 | 1011.9 |
| 20260506201012 | 75 | 32 | 1.0 | 2.0 | 0.00 | 0.29 | 0.00 | 85 | 1011.9 |
| 20260506200854 | 75 | 65 | 0.0 | 2.0 | 0.00 | 0.29 | 0.00 | 85 | 1011.9 |
| 20260506200513 | 75 | 20 | 0.0 | 1.0 | 0.00 | 0.29 | 0.00 | 85 | 1011.8 |
| 20260506200344 | 75 | 20 | 0.0 | 1.0 | 0.00 | 0.29 | 0.00 | 85 | 1011.9 |
| 20260506200012 | 75 | 29 | 0.0 | 5.0 | 0.00 | 0.29 | 0.00 | 85 | 1011.9 |
| 20260506195834 | 75 | 335 | 0.0 | 5.0 | 0.00 | 0.29 | 0.00 | 85 | 1011.9 |
| 20260506195512 | 75 | 336 | 0.0 | 3.0 | 0.00 | 0.29 | 0.00 | 85 | 1011.9 |
| 20260506195324 | 75 | 280 | 1.0 | 4.0 | 0.00 | 0.29 | 0.00 | 85 | 1011.9 |
| 20260506195013 | 75 | 204 | 1.0 | 4.0 | 0.00 | 0.29 | 0.00 | 85 | 1011.8 |
| 20260506194814 | 75 | 55 | 0.0 | 5.0 | 0.00 | 0.29 | 0.00 | 85 | 1011.8 |
| 20260506194512 | 75 | 197 | 1.0 | 5.0 | 0.00 | 0.29 | 0.00 | 85 | 1011.8 |
| 20260506194303 | 75 | 232 | 0.0 | 4.0 | 0.00 | 0.29 | 0.00 | 85 | 1011.8 |
| 20260506194012 | 75 | 306 | 2.0 | 4.0 | 0.00 | 0.29 | 0.00 | 85 | 1011.8 |
| 20260506193754 | 75 | 295 | 0.0 | 3.0 | 0.00 | 0.29 | 0.00 | 85 | 1011.8 |
| 20260506193512 | 75 | 291 | 1.0 | 3.0 | 0.00 | 0.29 | 0.00 | 85 | 1011.8 |
| 20260506193243 | 75 | 311 | 0.0 | 1.0 | 0.00 | 0.29 | 0.00 | 85 | 1011.9 |
| 20260506193012 | 75 | 340 | 0.0 | 2.0 | 0.00 | 0.29 | 0.00 | 85 | 1011.9 |
| 20260506192734 | 75 | 49 | 0.0 | 4.0 | 0.00 | 0.29 | 0.00 | 85 | 1011.9 |
| 20260506192512 | 75 | 293 | 1.0 | 5.0 | 0.00 | 0.29 | 0.00 | 85 | 1012.0 |
| 20260506192224 | 75 | 213 | 1.0 | 5.0 | 0.00 | 0.29 | 0.00 | 85 | 1012.0 |
| 20260506192012 | 75 | 221 | 1.0 | 2.0 | 0.01 | 0.29 | 0.00 | 85 | 1012.0 |
| 20260506191512 | 75 | 210 | 0.0 | 4.0 | 0.01 | 0.29 | 0.00 | 85 | 1012.0 |
| 20260506191204 | 75 | 159 | 1.0 | 3.0 | 0.01 | 0.29 | 0.00 | 85 | 1012.0 |
| 20260506191012 | 75 | 187 | 1.0 | 2.0 | 0.01 | 0.29 | 0.00 | 85 | 1012.0 |
| 20260506190653 | 75 | 266 | 1.0 | 2.0 | 0.01 | 0.29 | 0.00 | 85 | 1012.0 |
| 20260506190512 | 75 | 242 | 1.0 | 2.0 | 0.01 | 0.29 | 0.00 | 85 | 1012.0 |
| 20260506190144 | 75 | 247 | 0.0 | 2.0 | 0.01 | 0.29 | 0.00 | 85 | 1012.0 |
| 20260506190012 | 75 | 262 | 1.0 | 2.0 | 0.01 | 0.29 | 0.00 | 85 | 1012.0 |
| 20260506185633 | 75 | 122 | 1.0 | 1.0 | 0.01 | 0.29 | 0.00 | 85 | 1011.9 |
| 20260506185512 | 75 | 48 | 0.0 | 3.0 | 0.01 | 0.29 | 0.00 | 85 | 1011.9 |
| 20260506185123 | 75 | 28 | 1.0 | 5.0 | 0.01 | 0.29 | 0.00 | 85 | 1012.0 |
| 20260506185012 | 75 | 72 | 1.0 | 5.0 | 0.01 | 0.29 | 0.00 | 85 | 1012.0 |
| 20260506184613 | 75 | 336 | 0.0 | 2.0 | 0.01 | 0.29 | 0.00 | 85 | 1012.0 |
| 20260506184511 | 75 | 20 | 0.0 | 2.0 | 0.01 | 0.29 | 0.00 | 85 | 1012.0 |
| 20260506184103 | 75 | 63 | 1.0 | 4.0 | 0.01 | 0.29 | 0.00 | 85 | 1012.1 |
| 20260506184012 | 75 | 25 | 2.0 | 4.0 | 0.01 | 0.29 | 0.00 | 85 | 1012.1 |
| 20260506183553 | 75 | 252 | 0.0 | 3.0 | 0.01 | 0.29 | 0.00 | 85 | 1012.1 |
| 20260506183512 | 75 | 235 | 0.0 | 5.0 | 0.01 | 0.29 | 0.00 | 84 | 1012.1 |
| 20260506183012 | 75 | 213 | 2.0 | 6.0 | 0.01 | 0.29 | 0.00 | 84 | 1012.1 |
| 20260506182533 | 75 | 220 | 1.0 | 5.0 | 0.01 | 0.29 | 0.00 | 84 | 1012.1 |
| 20260506182512 | 75 | 168 | 2.0 | 5.0 | 0.01 | 0.29 | 0.00 | 84 | 1012.1 |
| 20260506182023 | 75 | 252 | 1.0 | 2.0 | 0.00 | 0.28 | 0.00 | 84 | 1012.1 |
| 20260506182012 | 75 | 252 | 1.0 | 2.0 | 0.00 | 0.28 | 0.00 | 84 | 1012.2 |
| 20260506181514 | 75 | 287 | 0.0 | 4.0 | 0.00 | 0.28 | 0.00 | 84 | 1012.2 |
| 20260506181512 | 75 | 288 | 0.0 | 4.0 | 0.00 | 0.28 | 0.00 | 84 | 1012.2 |
| 20260506181011 | 75 | 169 | 0.0 | 1.0 | 0.00 | 0.28 | 0.00 | 84 | 1012.2 |
| 20260506181003 | 75 | 184 | 0.0 | 1.0 | 0.00 | 0.28 | 0.00 | 84 | 1012.2 |
| 20260506180512 | 75 | 224 | 1.0 | 3.0 | 0.00 | 0.28 | 0.00 | 84 | 1012.2 |
| 20260506180453 | 75 | 238 | 2.0 | 3.0 | 0.00 | 0.28 | 0.00 | 84 | 1012.2 |
| 20260506180011 | 75 | 342 | 1.0 | 3.0 | 0.00 | 0.28 | 0.00 | 84 | 1012.2 |
| 20260506175942 | 75 | 357 | 0.0 | 3.0 | 0.00 | 0.28 | 0.00 | 84 | 1012.2 |
| 20260506175511 | 75 | 240 | 1.0 | 7.0 | 0.00 | 0.28 | 0.00 | 84 | 1012.3 |
| 20260506175433 | 75 | 281 | 2.0 | 7.0 | 0.00 | 0.28 | 0.00 | 84 | 1012.3 |
| 20260506175012 | 75 | 258 | 0.0 | 0.0 | 0.00 | 0.28 | 0.00 | 84 | 1012.3 |
| 20260506174922 | 75 | 268 | 0.0 | 0.0 | 0.00 | 0.28 | 0.00 | 84 | 1012.3 |
| 20260506174511 | 75 | 253 | 0.0 | 3.0 | 0.00 | 0.28 | 0.00 | 84 | 1012.3 |
| 20260506174413 | 75 | 294 | 0.0 | 3.0 | 0.00 | 0.28 | 0.00 | 84 | 1012.3 |
| 20260506174012 | 75 | 229 | 0.0 | 1.0 | 0.00 | 0.28 | 0.00 | 84 | 1012.3 |
| 20260506173903 | 75 | 16 | 0.0 | 1.0 | 0.00 | 0.28 | 0.00 | 84 | 1012.3 |
| 20260506173512 | 75 | 57 | 0.0 | 2.0 | 0.00 | 0.28 | 0.00 | 84 | 1012.3 |
| 20260506173352 | 75 | 49 | 0.0 | 2.0 | 0.00 | 0.28 | 0.00 | 84 | 1012.3 |
| 20260506173011 | 75 | 199 | 1.0 | 2.0 | 0.00 | 0.28 | 0.00 | 84 | 1012.3 |
| 20260506172843 | 75 | 128 | 0.0 | 1.0 | 0.00 | 0.28 | 0.00 | 84 | 1012.3 |
| 20260506172511 | 75 | 77 | 0.0 | 2.0 | 0.00 | 0.28 | 0.00 | 84 | 1012.4 |
| 20260506172333 | 75 | 26 | 1.0 | 2.0 | 0.00 | 0.28 | 0.00 | 84 | 1012.4 |
| 20260506172011 | 75 | 232 | 0.0 | 1.0 | 0.00 | 0.28 | 0.00 | 84 | 1012.4 |
| 20260506171822 | 75 | 41 | 0.0 | 1.0 | 0.00 | 0.28 | 0.00 | 84 | 1012.4 |
| 20260506171511 | 75 | 20 | 0.0 | 1.0 | 0.00 | 0.28 | 0.00 | 84 | 1012.4 |
| 20260506171313 | 75 | 339 | 0.0 | 3.0 | 0.00 | 0.28 | 0.00 | 84 | 1012.4 |
| 20260506171011 | 75 | 254 | 0.0 | 3.0 | 0.00 | 0.28 | 0.00 | 84 | 1012.4 |
| 20260506170802 | 75 | 128 | 1.0 | 3.0 | 0.00 | 0.28 | 0.00 | 84 | 1012.5 |
| 20260506170511 | 75 | 99 | 1.0 | 4.0 | 0.00 | 0.28 | 0.00 | 84 | 1012.4 |
| 20260506170253 | 75 | 327 | 1.0 | 4.0 | 0.00 | 0.28 | 0.00 | 84 | 1012.4 |
| 20260506170011 | 75 | 261 | 0.0 | 7.0 | 0.00 | 0.28 | 0.00 | 84 | 1012.4 |
| 20260506165743 | 75 | 16 | 4.0 | 7.0 | 0.00 | 0.28 | 0.00 | 84 | 1012.4 |
| 20260506165512 | 75 | 49 | 0.0 | 3.0 | 0.00 | 0.28 | 0.00 | 84 | 1012.4 |
| 20260506165232 | 75 | 33 | 0.0 | 5.0 | 0.00 | 0.28 | 0.00 | 84 | 1012.4 |
| 20260506165011 | 75 | 123 | 0.0 | 5.0 | 0.00 | 0.28 | 0.00 | 84 | 1012.4 |
| 20260506164722 | 75 | 56 | 2.0 | 5.0 | 0.00 | 0.28 | 0.00 | 84 | 1012.4 |
| 20260506164511 | 75 | 15 | 2.0 | 6.0 | 0.00 | 0.28 | 0.00 | 84 | 1012.4 |
| 20260506164212 | 75 | 48 | 2.0 | 6.0 | 0.00 | 0.28 | 0.00 | 84 | 1012.4 |
| 20260506164010 | 75 | 45 | 2.0 | 5.0 | 0.00 | 0.28 | 0.00 | 84 | 1012.4 |
| 20260506163702 | 75 | 31 | 2.0 | 5.0 | 0.00 | 0.28 | 0.00 | 84 | 1012.5 |
| 20260506163511 | 75 | 28 | 1.0 | 4.0 | 0.00 | 0.28 | 0.00 | 84 | 1012.5 |
| 20260506163152 | 75 | 51 | 1.0 | 4.0 | 0.00 | 0.28 | 0.00 | 84 | 1012.6 |
| 20260506163011 | 75 | 109 | 1.0 | 4.0 | 0.00 | 0.28 | 0.00 | 84 | 1012.6 |
| 20260506162642 | 75 | 18 | 2.0 | 5.0 | 0.00 | 0.28 | 0.00 | 84 | 1012.6 |
| 20260506162510 | 75 | 1 | 1.0 | 5.0 | 0.00 | 0.28 | 0.00 | 84 | 1012.6 |
| 20260506162132 | 75 | 61 | 1.0 | 4.0 | 0.00 | 0.28 | 0.00 | 84 | 1012.6 |
| 20260506162011 | 75 | 13 | 1.0 | 4.0 | 0.00 | 0.28 | 0.00 | 84 | 1012.6 |
| 20260506161622 | 75 | 317 | 1.0 | 5.0 | 0.00 | 0.28 | 0.00 | 84 | 1012.7 |
| 20260506161511 | 75 | 17 | 1.0 | 5.0 | 0.00 | 0.28 | 0.00 | 83 | 1012.6 |
| 20260506161112 | 75 | 64 | 0.0 | 2.0 | 0.00 | 0.28 | 0.00 | 83 | 1012.7 |
| 20260506161011 | 75 | 50 | 0.0 | 2.0 | 0.00 | 0.28 | 0.00 | 83 | 1012.7 |
| 20260506160602 | 75 | 19 | 1.0 | 5.0 | 0.00 | 0.28 | 0.00 | 83 | 1012.8 |
| 20260506160511 | 75 | 47 | 1.0 | 5.0 | 0.00 | 0.28 | 0.00 | 83 | 1012.8 |
| 20260506160052 | 75 | 61 | 1.0 | 2.0 | 0.00 | 0.28 | 0.00 | 83 | 1012.8 |
| 20260506160010 | 75 | 319 | 0.0 | 2.0 | 0.00 | 0.28 | 0.00 | 83 | 1012.8 |
| 20260506155542 | 75 | 337 | 0.0 | 7.0 | 0.00 | 0.28 | 0.00 | 83 | 1012.8 |
| 20260506155510 | 75 | 341 | 1.0 | 7.0 | 0.00 | 0.28 | 0.00 | 83 | 1012.8 |
| 20260506155032 | 75 | 26 | 0.0 | 5.0 | 0.00 | 0.28 | 0.00 | 83 | 1012.8 |
| 20260506155011 | 75 | 31 | 0.0 | 4.0 | 0.00 | 0.28 | 0.00 | 83 | 1012.8 |
| 20260506154521 | 75 | 234 | 0.0 | 4.0 | 0.00 | 0.28 | 0.00 | 83 | 1012.8 |
| 20260506154510 | 75 | 234 | 0.0 | 4.0 | 0.00 | 0.28 | 0.00 | 83 | 1012.7 |
| 20260506154013 | 75 | 263 | 0.0 | 4.0 | 0.00 | 0.28 | 0.00 | 83 | 1012.8 |
| 20260506154010 | 75 | 303 | 0.0 | 4.0 | 0.00 | 0.28 | 0.00 | 83 | 1012.8 |
| 20260506153511 | 75 | 113 | 2.0 | 7.0 | 0.00 | 0.28 | 0.00 | 83 | 1012.8 |
| 20260506153502 | 75 | 122 | 3.0 | 7.0 | 0.00 | 0.28 | 0.00 | 83 | 1012.9 |
| 20260506153010 | 75 | 230 | 1.0 | 5.0 | 0.00 | 0.28 | 0.00 | 83 | 1012.9 |
| 20260506152952 | 75 | 303 | 2.0 | 5.0 | 0.00 | 0.28 | 0.00 | 83 | 1013.0 |
| 20260506152510 | 75 | 357 | 1.0 | 2.0 | 0.00 | 0.28 | 0.00 | 83 | 1013.1 |
| 20260506152442 | 75 | 27 | 0.0 | 2.0 | 0.00 | 0.28 | 0.00 | 83 | 1013.1 |
| 20260506152012 | 75 | 21 | 0.0 | 4.0 | 0.00 | 0.28 | 0.00 | 83 | 1013.1 |
| 20260506151931 | 75 | 360 | 0.0 | 4.0 | 0.00 | 0.28 | 0.00 | 83 | 1013.1 |
| 20260506151511 | 75 | 25 | 2.0 | 11.0 | 0.00 | 0.28 | 0.00 | 83 | 1013.2 |
| 20260506151422 | 75 | 56 | 1.0 | 11.0 | 0.00 | 0.28 | 0.00 | 83 | 1013.1 |
| 20260506151010 | 75 | 57 | 3.0 | 6.0 | 0.00 | 0.28 | 0.00 | 83 | 1013.2 |
| 20260506150911 | 75 | 43 | 0.0 | 2.0 | 0.00 | 0.28 | 0.00 | 83 | 1013.2 |
| 20260506150510 | 75 | 55 | 0.0 | 2.0 | 0.00 | 0.28 | 0.00 | 83 | 1013.1 |
| 20260506150402 | 75 | 60 | 0.0 | 2.0 | 0.00 | 0.28 | 0.00 | 83 | 1013.2 |
| 20260506150011 | 75 | 76 | 1.0 | 3.0 | 0.00 | 0.28 | 0.00 | 83 | 1013.2 |
| 20260506145851 | 75 | 30 | 1.0 | 5.0 | 0.00 | 0.28 | 0.00 | 83 | 1013.1 |
| 20260506145510 | 75 | 124 | 3.0 | 5.0 | 0.00 | 0.28 | 0.00 | 83 | 1013.2 |
| 20260506145342 | 75 | 115 | 2.0 | 4.0 | 0.00 | 0.28 | 0.00 | 83 | 1013.2 |
| 20260506145009 | 75 | 53 | 1.0 | 3.0 | 0.00 | 0.28 | 0.00 | 82 | 1013.1 |
| 20260506144831 | 75 | 43 | 1.0 | 3.0 | 0.00 | 0.28 | 0.00 | 82 | 1013.2 |
| 20260506144510 | 75 | 235 | 0.0 | 3.0 | 0.00 | 0.28 | 0.00 | 82 | 1013.1 |
| 20260506144321 | 75 | 225 | 1.0 | 2.0 | 0.00 | 0.28 | 0.00 | 82 | 1013.1 |
| 20260506144010 | 75 | 203 | 0.0 | 3.0 | 0.00 | 0.28 | 0.00 | 82 | 1013.1 |
| 20260506143811 | 75 | 345 | 0.0 | 3.0 | 0.00 | 0.28 | 0.00 | 82 | 1013.0 |
| 20260506143510 | 75 | 286 | 1.0 | 7.0 | 0.00 | 0.28 | 0.00 | 82 | 1013.0 |
| 20260506143301 | 75 | 299 | 3.0 | 7.0 | 0.00 | 0.28 | 0.00 | 82 | 1012.9 |
| 20260506143010 | 75 | 321 | 0.0 | 2.0 | 0.00 | 0.28 | 0.00 | 82 | 1012.9 |
| 20260506142752 | 75 | 254 | 0.0 | 5.0 | 0.00 | 0.28 | 0.00 | 82 | 1013.0 |
| 20260506142509 | 75 | 354 | 2.0 | 5.0 | 0.00 | 0.28 | 0.00 | 82 | 1013.0 |
| 20260506142241 | 75 | 68 | 2.0 | 3.0 | 0.00 | 0.28 | 0.00 | 82 | 1013.0 |
| 20260506142010 | 75 | 315 | 0.0 | 9.0 | 0.00 | 0.28 | 0.00 | 82 | 1013.0 |
| 20260506141731 | 75 | 32 | 2.0 | 9.0 | 0.00 | 0.28 | 0.00 | 82 | 1013.0 |
| 20260506141510 | 75 | 68 | 3.0 | 5.0 | 0.00 | 0.28 | 0.00 | 82 | 1013.0 |
| 20260506141222 | 75 | 78 | 2.0 | 5.0 | 0.00 | 0.28 | 0.00 | 82 | 1013.0 |
| 20260506141009 | 75 | 50 | 2.0 | 5.0 | 0.00 | 0.28 | 0.00 | 82 | 1013.1 |
| 20260506140711 | 75 | 36 | 2.0 | 8.0 | 0.00 | 0.28 | 0.00 | 82 | 1013.0 |
| 20260506140510 | 75 | 21 | 0.0 | 8.0 | 0.00 | 0.28 | 0.00 | 82 | 1013.0 |
| 20260506140201 | 75 | 92 | 0.0 | 4.0 | 0.00 | 0.28 | 0.00 | 82 | 1013.0 |
| 20260506140010 | 75 | 18 | 1.0 | 3.0 | 0.00 | 0.28 | 0.00 | 82 | 1012.9 |
| 20260506135651 | 75 | 282 | 1.0 | 9.0 | 0.00 | 0.28 | 0.00 | 82 | 1012.9 |
| 20260506135509 | 75 | 25 | 3.0 | 9.0 | 0.00 | 0.28 | 0.00 | 82 | 1012.9 |
| 20260506135141 | 75 | 9 | 3.0 | 8.0 | 0.00 | 0.28 | 0.00 | 82 | 1013.0 |
| 20260506135010 | 75 | 42 | 1.0 | 8.0 | 0.00 | 0.28 | 0.00 | 82 | 1012.9 |
| 20260506134631 | 75 | 311 | 2.0 | 6.0 | 0.00 | 0.28 | 0.00 | 82 | 1012.9 |
| 20260506134510 | 75 | 24 | 2.0 | 5.0 | 0.00 | 0.28 | 0.00 | 82 | 1012.8 |
| 20260506134121 | 75 | 360 | 1.0 | 13.0 | 0.00 | 0.28 | 0.00 | 82 | 1012.8 |
| 20260506134009 | 75 | 22 | 2.0 | 15.0 | 0.00 | 0.28 | 0.00 | 82 | 1012.8 |
| 20260506133611 | 75 | 61 | 7.0 | 13.0 | 0.00 | 0.28 | 0.00 | 82 | 1012.8 |
| 20260506133509 | 75 | 71 | 5.0 | 8.0 | 0.00 | 0.28 | 0.00 | 83 | 1012.7 |
| 20260506133010 | 75 | 329 | 1.0 | 9.0 | 0.01 | 0.28 | 0.00 | 83 | 1012.7 |
| 20260506132550 | 75 | 43 | 3.0 | 8.0 | 0.01 | 0.28 | 0.00 | 83 | 1012.7 |
| 20260506132509 | 75 | 23 | 3.0 | 7.0 | 0.01 | 0.28 | 0.00 | 83 | 1012.7 |
| 20260506132041 | 75 | 338 | 1.0 | 11.0 | 0.01 | 0.28 | 0.00 | 83 | 1012.7 |
| 20260506132009 | 75 | 271 | 2.0 | 11.0 | 0.01 | 0.28 | 0.00 | 83 | 1012.6 |
| 20260506131531 | 75 | 269 | 1.0 | 3.0 | 0.01 | 0.28 | 0.00 | 83 | 1012.7 |
| 20260506131509 | 75 | 253 | 1.0 | 3.0 | 0.01 | 0.28 | 0.00 | 83 | 1012.7 |
| 20260506131020 | 75 | 56 | 3.0 | 9.0 | 0.01 | 0.28 | 0.00 | 83 | 1012.7 |
| 20260506131010 | 75 | 52 | 3.0 | 9.0 | 0.01 | 0.28 | 0.00 | 83 | 1012.7 |
| 20260506130509 | 75 | 58 | 2.0 | 7.0 | 0.01 | 0.28 | 0.00 | 83 | 1012.7 |
| 20260506130009 | 75 | 87 | 5.0 | 10.0 | 0.01 | 0.28 | 0.00 | 83 | 1012.6 |
| 20260506130000 | 75 | 101 | 5.0 | 10.0 | 0.01 | 0.28 | 0.00 | 83 | 1012.6 |
| 20260506125510 | 75 | 37 | 4.0 | 11.0 | 0.01 | 0.28 | 0.00 | 83 | 1012.6 |
| 20260506125451 | 75 | 58 | 4.0 | 11.0 | 0.01 | 0.28 | 0.00 | 83 | 1012.6 |
| 20260506125009 | 75 | 293 | 2.0 | 5.0 | 0.01 | 0.28 | 0.00 | 83 | 1012.6 |
| 20260506124940 | 75 | 302 | 3.0 | 5.0 | 0.01 | 0.28 | 0.00 | 83 | 1012.6 |
| 20260506124509 | 75 | 360 | 2.0 | 9.0 | 0.01 | 0.28 | 0.00 | 83 | 1012.6 |
| 20260506124430 | 75 | 350 | 1.0 | 9.0 | 0.01 | 0.28 | 0.00 | 83 | 1012.6 |
| 20260506124008 | 75 | 83 | 2.0 | 7.0 | 0.01 | 0.28 | 0.00 | 83 | 1012.5 |
| 20260506123920 | 75 | 29 | 1.0 | 7.0 | 0.01 | 0.28 | 0.00 | 83 | 1012.5 |
| 20260506123509 | 75 | 75 | 5.0 | 13.0 | 0.01 | 0.28 | 0.00 | 83 | 1012.5 |
| 20260506123410 | 75 | 70 | 8.0 | 13.0 | 0.01 | 0.28 | 0.00 | 83 | 1012.5 |